Terminal Aerodrome Forecast
Issued by NWS

Home | Current Version | Previous Version | Graphics & Text | Print | Product List | Glossary On
Versions: 1 2 3 4 5 6 7 8 9 10 11 12 13 14 15 16 17 18 19 20 21 22 23 24 25
000
FTUS43 KBIS 241700
TAFMOT
TAF
KMOT 241734Z 2418/2518 23007KT P6SM BKN060 OVC070
      TEMPO 2418/2420 2SM -SN BR FEW040 OVC050
     FM242000 23010KT P6SM SCT050 OVC100
     FM250100 27008KT P6SM BKN030 OVC050
     FM250900 31010KT 5SM BR OVC020=

USA.gov is the U.S. government's official web portal to all federal, state and local government web resources and services.